createdAt,value
2023-05-04T00:00:37.008Z,99352.44
2023-05-04T00:02:10.462Z,99353.38
2023-05-04T00:03:43.927Z,99358.38
2023-05-04T00:05:17.207Z,99350.16
2023-05-04T00:06:50.328Z,99339.75
2023-05-04T00:08:23.766Z,99345.78
2023-05-04T00:09:57.255Z,99348.53
2023-05-04T00:11:30.493Z,99355.41
2023-05-04T00:13:03.746Z,99346.38
2023-05-04T00:14:38.668Z,99347.16
2023-05-04T00:16:11.362Z,99342.53
2023-05-04T00:17:44.592Z,99337.00
2023-05-04T00:19:19.543Z,99340.19
2023-05-04T00:20:53.065Z,99335.81
2023-05-04T00:22:25.741Z,99342.03
2023-05-04T00:23:59.083Z,99345.50
2023-05-04T00:25:31.604Z,99351.78
2023-05-04T00:27:05.190Z,99359.56
2023-05-04T00:28:38.646Z,99340.19
2023-05-04T00:30:13.169Z,99352.38
2023-05-04T00:31:46.435Z,99358.50
2023-05-04T00:33:19.701Z,99355.91
2023-05-04T00:34:53.145Z,99345.34
2023-05-04T00:36:27.276Z,99343.59
2023-05-04T00:38:00.439Z,99335.00
2023-05-04T00:39:35.314Z,99333.28
2023-05-04T00:41:07.534Z,99340.34
2023-05-04T00:42:40.642Z,99342.38
2023-05-04T00:44:13.196Z,99339.88
2023-05-04T00:45:48.576Z,99329.38
2023-05-04T00:47:22.961Z,99331.59
2023-05-04T00:48:56.431Z,99332.84
2023-05-04T00:50:30.507Z,99325.09
2023-05-04T00:52:05.853Z,99328.03
2023-05-04T00:53:40.443Z,99326.28
2023-05-04T00:55:14.609Z,99326.47
2023-05-04T00:56:48.427Z,99322.06
2023-05-04T00:58:22.792Z,99322.84
2023-05-04T00:59:55.269Z,99303.78
2023-05-04T01:01:29.984Z,99315.81
2023-05-04T01:03:03.675Z,99318.63
2023-05-04T01:04:37.441Z,99317.69
2023-05-04T01:06:20.961Z,99308.91
2023-05-04T01:08:00.108Z,99315.97
2023-05-04T01:09:38.586Z,99319.56
2023-05-04T01:11:13.630Z,99314.41
2023-05-04T01:12:52.917Z,99319.81
2023-05-04T01:14:26.851Z,99318.88
2023-05-04T01:15:59.923Z,99319.56
2023-05-04T01:17:34.643Z,99319.41
2023-05-04T01:19:07.889Z,99303.44
2023-05-04T01:20:40.995Z,99312.38
2023-05-04T01:22:15.800Z,99315.97
2023-05-04T01:23:48.319Z,99309.00
2023-05-04T01:25:22.047Z,99307.19
2023-05-04T01:27:02.412Z,99299.22
2023-05-04T01:28:42.349Z,99298.25
2023-05-04T01:30:20.678Z,99296.69
2023-05-04T01:31:54.949Z,99294.03
2023-05-04T01:33:30.128Z,99289.06
2023-05-04T01:35:04.872Z,99284.84
2023-05-04T01:36:37.815Z,99285.94
2023-05-04T01:38:12.455Z,99271.22
2023-05-04T01:39:46.324Z,99283.78
2023-05-04T01:41:19.487Z,99283.84
2023-05-04T01:42:53.034Z,99277.13
2023-05-04T01:44:25.204Z,99275.56
2023-05-04T01:45:58.490Z,99273.16
2023-05-04T01:47:31.988Z,99272.44
2023-05-04T01:49:05.330Z,99262.75
2023-05-04T01:50:38.414Z,99261.94
2023-05-04T01:52:11.877Z,99262.28
2023-05-04T01:53:45.485Z,99273.06
2023-05-04T01:55:19.047Z,99274.91
2023-05-04T01:56:52.219Z,99280.16
2023-05-04T01:58:25.979Z,99274.16
2023-05-04T01:59:59.604Z,99277.09
2023-05-04T02:01:32.886Z,99284.44
2023-05-04T02:03:05.383Z,99279.13
2023-05-04T02:04:39.090Z,99275.66
2023-05-04T02:06:12.611Z,99271.66
2023-05-04T02:07:44.811Z,99268.94
2023-05-04T02:09:19.379Z,99263.78
2023-05-04T02:10:51.647Z,99265.66
2023-05-04T02:12:24.904Z,99259.41
2023-05-04T02:13:58.094Z,99263.06
2023-05-04T02:15:31.697Z,99262.06
2023-05-04T02:17:04.866Z,99275.81
2023-05-04T02:18:38.078Z,99258.16
2023-05-04T02:20:11.252Z,99268.66
2023-05-04T02:21:44.652Z,99273.81
2023-05-04T02:23:17.936Z,99270.22
2023-05-04T02:24:52.799Z,99275.38
2023-05-04T02:26:26.958Z,99268.34
2023-05-04T02:27:59.244Z,99270.22
2023-05-04T02:29:32.461Z,99271.16
2023-05-04T02:31:06.487Z,99275.53
2023-05-04T02:32:41.172Z,99268.50
2023-05-04T02:34:14.476Z,99279.81
2023-05-04T02:35:53.162Z,99283.13
2023-05-04T02:37:25.412Z,99280.31
2023-05-04T02:39:00.590Z,99280.31
2023-05-04T02:40:34.423Z,99284.91
2023-05-04T02:42:07.626Z,99285.88
2023-05-04T02:43:40.957Z,99290.47
2023-05-04T02:45:14.388Z,99288.88
2023-05-04T02:46:46.604Z,99288.34
2023-05-04T02:48:19.829Z,99284.03
2023-05-04T02:49:53.086Z,99288.47
2023-05-04T02:51:26.451Z,99284.88
2023-05-04T02:52:59.621Z,99279.41
2023-05-04T02:54:32.743Z,99291.88
2023-05-04T02:56:07.941Z,99290.19
2023-05-04T02:57:40.100Z,99282.28
2023-05-04T02:59:13.507Z,99283.16
2023-05-04T03:00:46.714Z,99283.22
2023-05-04T03:02:19.008Z,99285.06
2023-05-04T03:03:52.371Z,99293.94
2023-05-04T03:05:25.843Z,99298.47
2023-05-04T03:06:59.180Z,99299.31
2023-05-04T03:08:32.411Z,99299.38
2023-05-04T03:10:06.852Z,99305.72
2023-05-04T03:11:40.695Z,99300.78
2023-05-04T03:13:14.061Z,99305.16
2023-05-04T03:14:48.214Z,99308.75
2023-05-04T03:16:22.287Z,99311.34
2023-05-04T03:17:57.088Z,99314.91
2023-05-04T03:19:29.529Z,99318.44
2023-05-04T03:21:03.140Z,99300.94
2023-05-04T03:22:36.722Z,99317.81
2023-05-04T03:24:09.086Z,99318.09
2023-05-04T03:25:42.397Z,99319.94
2023-05-04T03:27:17.462Z,99320.81
2023-05-04T03:28:50.980Z,99327.91
2023-05-04T03:30:24.246Z,99326.06
2023-05-04T03:31:57.544Z,99328.84
2023-05-04T03:33:29.954Z,99332.59
2023-05-04T03:35:04.121Z,99332.72
2023-05-04T03:36:37.731Z,99332.84
2023-05-04T03:38:11.492Z,99338.34
2023-05-04T03:39:44.737Z,99343.41
2023-05-04T03:41:18.042Z,99347.78
2023-05-04T03:42:52.835Z,99345.25
2023-05-04T03:44:26.547Z,99351.50
2023-05-04T03:46:00.656Z,99350.56
2023-05-04T03:47:34.004Z,99353.09
2023-05-04T03:49:07.290Z,99352.81
2023-05-04T03:50:40.417Z,99356.25
2023-05-04T03:52:14.965Z,99347.50
2023-05-04T03:53:48.449Z,99349.50
2023-05-04T03:55:23.853Z,99360.09
2023-05-04T03:56:57.212Z,99365.28
2023-05-04T03:58:32.428Z,99367.88
2023-05-04T04:00:10.156Z,99365.41
2023-05-04T04:01:53.843Z,99371.53
2023-05-04T04:03:26.227Z,99369.75
2023-05-04T04:05:01.029Z,99363.63
2023-05-04T04:06:34.695Z,99361.84
2023-05-04T04:08:07.895Z,99362.75
2023-05-04T04:09:40.065Z,99367.16
2023-05-04T04:11:13.533Z,99375.91
2023-05-04T04:12:46.911Z,99373.19
2023-05-04T04:14:21.533Z,99368.00
2023-05-04T04:15:54.804Z,99386.53
2023-05-04T04:17:28.189Z,99385.22
2023-05-04T04:19:02.262Z,99394.91
2023-05-04T04:20:34.394Z,99394.56
2023-05-04T04:22:07.749Z,99394.50
2023-05-04T04:23:41.132Z,99394.19
2023-05-04T04:25:14.472Z,99397.78
2023-05-04T04:26:47.727Z,99400.38
2023-05-04T04:28:21.349Z,99401.38
2023-05-04T04:29:55.069Z,99408.69
2023-05-04T04:31:28.416Z,99409.34
2023-05-04T04:33:02.294Z,99403.91
2023-05-04T04:34:35.594Z,99414.50
2023-05-04T04:36:09.562Z,99414.25
2023-05-04T04:37:43.119Z,99417.31
2023-05-04T04:39:16.815Z,99413.50
2023-05-04T04:40:50.079Z,99418.50
2023-05-04T04:42:23.288Z,99425.44
2023-05-04T04:43:56.982Z,99426.22
2023-05-04T04:45:33.584Z,99426.88
2023-05-04T04:47:06.725Z,99423.00
2023-05-04T04:48:40.210Z,99428.06
2023-05-04T04:50:13.648Z,99434.00
2023-05-04T04:51:49.023Z,99434.94
2023-05-04T04:53:22.242Z,99436.41
2023-05-04T04:54:55.502Z,99431.53
2023-05-04T04:56:28.841Z,99429.81
2023-05-04T04:58:02.353Z,99412.22
2023-05-04T04:59:34.512Z,99409.66
2023-05-04T05:01:09.361Z,99410.38
2023-05-04T05:02:42.881Z,99396.72
2023-05-04T05:04:16.108Z,99402.59
2023-05-04T05:05:48.391Z,99389.75
2023-05-04T05:07:22.012Z,99402.09
2023-05-04T05:08:55.542Z,99411.34
2023-05-04T05:10:28.630Z,99415.66
2023-05-04T05:12:02.069Z,99426.00
2023-05-04T05:13:35.346Z,99430.63
2023-05-04T05:15:09.409Z,99439.91
2023-05-04T05:16:44.187Z,99449.03
2023-05-04T05:18:17.364Z,99447.25
2023-05-04T05:19:50.607Z,99452.31
2023-05-04T05:21:24.026Z,99453.53
2023-05-04T05:22:57.250Z,99452.56
2023-05-04T05:24:30.391Z,99445.59
2023-05-04T05:26:04.198Z,99444.31
2023-05-04T05:27:37.783Z,99442.31
2023-05-04T05:29:11.353Z,99430.63
2023-05-04T05:30:44.710Z,99427.94
2023-05-04T05:32:19.408Z,99418.25
2023-05-04T05:33:52.807Z,99419.97
2023-05-04T05:35:26.031Z,99414.81
2023-05-04T05:36:59.443Z,99416.66
2023-05-04T05:38:32.854Z,99417.66
2023-05-04T05:40:08.980Z,99421.50
2023-05-04T05:41:42.221Z,99430.47
2023-05-04T05:43:15.368Z,99415.81
2023-05-04T05:44:48.914Z,99425.88
2023-05-04T05:46:22.808Z,99439.06
2023-05-04T05:47:57.581Z,99432.56
2023-05-04T05:49:31.043Z,99437.91
2023-05-04T05:51:04.524Z,99438.09
2023-05-04T05:52:37.832Z,99442.44
2023-05-04T05:54:10.916Z,99440.25
2023-05-04T05:55:44.185Z,99436.16
2023-05-04T05:57:17.497Z,99445.31
2023-05-04T05:58:52.469Z,99445.31
2023-05-04T06:00:26.211Z,99437.25
2023-05-04T06:01:59.367Z,99447.75
2023-05-04T06:03:34.476Z,99453.09
2023-05-04T06:05:08.360Z,99448.81
2023-05-04T06:06:42.678Z,99457.09
2023-05-04T06:08:17.402Z,99456.91
2023-05-04T06:09:49.946Z,99456.34
2023-05-04T06:11:23.260Z,99463.22
2023-05-04T06:12:56.559Z,99451.31
2023-05-04T06:14:29.765Z,99458.31
2023-05-04T06:16:03.215Z,99448.59
2023-05-04T06:17:36.880Z,99445.28
2023-05-04T06:19:11.924Z,99444.88
2023-05-04T06:20:45.333Z,99459.88
2023-05-04T06:22:18.832Z,99453.78
2023-05-04T06:23:52.231Z,99456.91
2023-05-04T06:25:25.407Z,99455.50
2023-05-04T06:26:58.933Z,99459.13
2023-05-04T06:28:32.642Z,99454.47
2023-05-04T06:30:08.497Z,99448.63
2023-05-04T06:31:43.231Z,99456.47
2023-05-04T06:33:16.565Z,99449.41
2023-05-04T06:34:54.311Z,99448.81
2023-05-04T06:36:27.673Z,99448.16
2023-05-04T06:38:00.890Z,99445.91
2023-05-04T06:39:34.259Z,99445.28
2023-05-04T06:41:07.778Z,99449.63
2023-05-04T06:42:41.674Z,99455.47
2023-05-04T06:44:14.856Z,99442.44
2023-05-04T06:45:48.138Z,99447.81
2023-05-04T06:47:21.596Z,99449.53
2023-05-04T06:48:55.422Z,99445.47
2023-05-04T06:50:30.289Z,99450.00
2023-05-04T06:52:03.461Z,99448.50
2023-05-04T06:53:36.996Z,99438.81
2023-05-04T06:55:09.956Z,99444.38
2023-05-04T06:56:43.393Z,99443.56
2023-05-04T06:58:18.507Z,99443.34
2023-05-04T06:59:52.857Z,99439.88
2023-05-04T07:01:26.275Z,99437.69
2023-05-04T07:02:59.503Z,99436.16
2023-05-04T07:04:33.471Z,99439.25
2023-05-04T07:06:08.817Z,99441.81
2023-05-04T07:07:42.163Z,99447.16
2023-05-04T07:09:15.249Z,99443.38
2023-05-04T07:10:48.789Z,99454.06
2023-05-04T07:12:22.587Z,99451.72
2023-05-04T07:13:56.072Z,99449.13
2023-05-04T07:15:29.180Z,99457.56
2023-05-04T07:17:02.649Z,99451.97
2023-05-04T07:18:36.309Z,99451.91
2023-05-04T07:20:10.587Z,99448.22
2023-05-04T07:21:45.252Z,99451.63
2023-05-04T07:23:18.654Z,99450.34
2023-05-04T07:24:51.930Z,99450.59
2023-05-04T07:26:25.512Z,99436.63
2023-05-04T07:27:59.763Z,99444.03
2023-05-04T07:29:32.892Z,99451.38
2023-05-04T07:31:06.632Z,99452.22
2023-05-04T07:32:40.127Z,99459.59
2023-05-04T07:34:13.320Z,99456.50
2023-05-04T07:35:46.613Z,99460.66
2023-05-04T07:37:21.393Z,99464.38
2023-05-04T07:38:55.074Z,99459.34
2023-05-04T07:40:28.448Z,99463.06
2023-05-04T07:42:02.593Z,99460.81
2023-05-04T07:43:35.932Z,99461.66
2023-05-04T07:45:11.097Z,99460.84
2023-05-04T07:46:44.212Z,99468.22
2023-05-04T07:48:18.134Z,99473.16
2023-05-04T07:49:51.867Z,99474.19
2023-05-04T07:51:25.211Z,99469.63
2023-05-04T07:52:59.715Z,99470.06
2023-05-04T07:54:32.859Z,99469.56
2023-05-04T07:56:10.716Z,99471.09
2023-05-04T07:57:44.206Z,99471.97
2023-05-04T07:59:18.994Z,99477.41
2023-05-04T08:00:52.289Z,99473.56
2023-05-04T08:02:26.051Z,99470.81
2023-05-04T08:03:59.641Z,99469.38
2023-05-04T08:05:32.945Z,99471.31
2023-05-04T08:07:06.324Z,99471.19
2023-05-04T08:08:41.107Z,99468.00
2023-05-04T08:10:14.342Z,99472.00
2023-05-04T08:11:48.287Z,99475.09
2023-05-04T08:13:21.733Z,99477.16
2023-05-04T08:14:55.336Z,99474.75
2023-05-04T08:16:29.363Z,99473.25
2023-05-04T08:18:02.812Z,99476.50
2023-05-04T08:19:36.326Z,99474.50
2023-05-04T08:21:09.731Z,99483.03
2023-05-04T08:22:42.832Z,99475.75
2023-05-04T08:24:17.646Z,99475.09
2023-05-04T08:25:51.172Z,99470.97
2023-05-04T08:27:24.528Z,99472.91
2023-05-04T08:29:07.199Z,99469.75
2023-05-04T08:30:40.396Z,99471.34
2023-05-04T08:32:13.701Z,99473.78
2023-05-04T08:33:47.589Z,99468.47
2023-05-04T08:35:20.923Z,99470.19
2023-05-04T08:36:54.194Z,99468.28
2023-05-04T08:38:27.497Z,99473.44
2023-05-04T08:40:02.326Z,99472.78
2023-05-04T08:41:40.062Z,99479.22
2023-05-04T08:43:13.418Z,99476.53
2023-05-04T08:44:46.570Z,99473.63
2023-05-04T08:46:20.368Z,99474.72
2023-05-04T08:47:53.988Z,99479.84
2023-05-04T08:49:29.276Z,99471.25
2023-05-04T08:51:04.691Z,99473.13
2023-05-04T08:52:44.290Z,99479.19
2023-05-04T08:54:18.385Z,99477.97
2023-05-04T08:55:56.029Z,99481.50
2023-05-04T08:57:29.670Z,99478.28
2023-05-04T08:59:04.162Z,99478.63
2023-05-04T09:00:38.741Z,99476.28
2023-05-04T09:02:14.734Z,99475.38
2023-05-04T09:03:48.865Z,99480.78
2023-05-04T09:05:22.749Z,99476.41
2023-05-04T09:06:56.949Z,99482.34
2023-05-04T09:08:30.195Z,99476.59
2023-05-04T09:10:04.560Z,99479.84
2023-05-04T09:11:39.443Z,99480.22
2023-05-04T09:13:12.962Z,99479.25
2023-05-04T09:14:47.501Z,99485.56
2023-05-04T09:16:21.182Z,99481.16
2023-05-04T09:17:59.760Z,99486.31
2023-05-04T09:19:34.830Z,99487.63
2023-05-04T09:21:08.559Z,99488.09
2023-05-04T09:22:41.936Z,99482.13
2023-05-04T09:24:15.318Z,99485.53
2023-05-04T09:25:49.621Z,99483.69
2023-05-04T09:27:24.119Z,99486.59
2023-05-04T09:28:57.496Z,99487.91
2023-05-04T09:30:30.764Z,99488.34
2023-05-04T09:32:06.087Z,99478.50
2023-05-04T09:33:39.315Z,99484.25
2023-05-04T09:35:21.677Z,99483.63
2023-05-04T09:37:04.185Z,99476.72
2023-05-04T09:38:37.703Z,99482.50
2023-05-04T09:40:12.241Z,99473.97
2023-05-04T09:41:45.432Z,99469.78
2023-05-04T09:43:20.445Z,99473.53
2023-05-04T09:45:01.817Z,99457.03
2023-05-04T09:46:36.557Z,99465.22
2023-05-04T09:48:17.551Z,99461.28
2023-05-04T09:49:50.877Z,99461.63
2023-05-04T09:51:26.720Z,99460.72
2023-05-04T09:53:00.715Z,99456.28
2023-05-04T09:54:36.499Z,99451.69
2023-05-04T09:56:15.700Z,99453.59
2023-05-04T09:57:51.149Z,99455.72
2023-05-04T09:59:31.638Z,99454.03
2023-05-04T10:01:05.578Z,99464.94
2023-05-04T10:02:39.593Z,99467.94
2023-05-04T10:04:13.271Z,99459.31
2023-05-04T10:05:46.666Z,99466.59
2023-05-04T10:07:21.015Z,99466.63
2023-05-04T10:08:54.819Z,99473.88
2023-05-04T10:10:28.282Z,99477.19
2023-05-04T10:12:05.282Z,99472.47
2023-05-04T10:13:39.186Z,99465.88
2023-05-04T10:15:15.504Z,99463.00
2023-05-04T10:16:58.241Z,99465.09
2023-05-04T10:18:45.951Z,99466.59
2023-05-04T10:20:34.712Z,99461.09
2023-05-04T10:22:22.078Z,99470.44
2023-05-04T10:24:15.595Z,99463.22
2023-05-04T10:26:16.797Z,99463.63
2023-05-04T10:28:02.078Z,99457.75
2023-05-04T10:29:36.155Z,99457.75
2023-05-04T10:31:10.973Z,99464.09
2023-05-04T10:32:44.508Z,99463.94
2023-05-04T10:34:26.589Z,99461.59
2023-05-04T10:36:00.009Z,99465.44
2023-05-04T10:37:33.427Z,99468.16
2023-05-04T10:39:07.509Z,99472.28
2023-05-04T10:40:41.470Z,99478.28
2023-05-04T10:42:14.891Z,99477.22
2023-05-04T10:43:50.993Z,99471.41
2023-05-04T10:45:35.518Z,99466.28
2023-05-04T10:47:10.355Z,99456.59
2023-05-04T10:48:43.496Z,99466.06
2023-05-04T10:50:16.909Z,99459.81
2023-05-04T10:51:50.478Z,99464.94
2023-05-04T10:53:33.587Z,99475.94
2023-05-04T10:55:09.070Z,99467.44
2023-05-04T10:56:42.351Z,99482.44
2023-05-04T10:58:19.502Z,99474.16
2023-05-04T10:59:57.181Z,99480.38
2023-05-04T11:01:30.501Z,99479.59
2023-05-04T11:03:07.355Z,99467.78
2023-05-04T11:04:40.831Z,99484.78
2023-05-04T11:06:19.658Z,99483.28
2023-05-04T11:07:55.987Z,99482.03
2023-05-04T11:09:30.047Z,99482.16
2023-05-04T11:11:04.706Z,99485.09
2023-05-04T11:12:39.504Z,99488.34
2023-05-04T11:14:23.827Z,99471.00
2023-05-04T11:15:56.921Z,99474.22
2023-05-04T11:17:30.356Z,99486.47
2023-05-04T11:19:12.397Z,99473.56
2023-05-04T11:20:45.989Z,99481.84
2023-05-04T11:22:19.547Z,99484.44
2023-05-04T11:23:56.715Z,99487.03
2023-05-04T11:25:30.898Z,99474.03
2023-05-04T11:27:04.028Z,99484.19
2023-05-04T11:28:38.162Z,99487.97
2023-05-04T11:30:12.191Z,99486.84
2023-05-04T11:31:55.487Z,99486.09
2023-05-04T11:33:28.906Z,99491.81
2023-05-04T11:35:04.652Z,99489.31
2023-05-04T11:36:39.403Z,99495.56
2023-05-04T11:38:14.321Z,99488.56
2023-05-04T11:39:47.718Z,99492.19
2023-05-04T11:41:20.924Z,99495.53
2023-05-04T11:42:56.886Z,99496.78
2023-05-04T11:44:30.805Z,99492.69
2023-05-04T11:46:05.084Z,99487.19
2023-05-04T11:47:39.447Z,99492.19
2023-05-04T11:49:12.954Z,99490.78
2023-05-04T11:50:49.271Z,99500.97
2023-05-04T11:52:26.204Z,99500.88
2023-05-04T11:54:01.179Z,99494.69
2023-05-04T11:55:36.083Z,99496.41
2023-05-04T11:57:09.350Z,99492.97
2023-05-04T11:58:42.573Z,99499.47
2023-05-04T12:00:17.146Z,99495.25
2023-05-04T12:01:50.481Z,99487.97
2023-05-04T12:03:35.484Z,99488.94
2023-05-04T12:05:17.216Z,99492.94
2023-05-04T12:06:52.214Z,99506.13
2023-05-04T12:08:27.435Z,99495.84
2023-05-04T12:10:00.664Z,99502.06
2023-05-04T12:11:35.761Z,99504.34
2023-05-04T12:13:18.011Z,99509.56
2023-05-04T12:14:52.167Z,99507.91
2023-05-04T12:16:25.461Z,99502.66
2023-05-04T12:18:01.702Z,99511.22
2023-05-04T12:19:36.095Z,99502.13
2023-05-04T12:21:13.993Z,99504.63
2023-05-04T12:22:49.208Z,99512.28
2023-05-04T12:24:23.787Z,99502.09
2023-05-04T12:25:58.459Z,99514.00
2023-05-04T12:27:32.879Z,99507.13
2023-05-04T12:29:06.290Z,99518.13
2023-05-04T12:30:39.382Z,99511.59
2023-05-04T12:32:12.967Z,99512.03
2023-05-04T12:33:46.577Z,99510.41
2023-05-04T12:35:19.660Z,99513.28
2023-05-04T12:36:52.905Z,99512.06
2023-05-04T12:38:28.344Z,99514.50
2023-05-04T12:40:01.555Z,99514.69
2023-05-04T12:41:34.865Z,99514.00
2023-05-04T12:43:07.950Z,99506.41
2023-05-04T12:44:41.356Z,99509.06
2023-05-04T12:46:14.790Z,99512.41
2023-05-04T12:47:48.148Z,99518.28
2023-05-04T12:49:23.422Z,99518.28
2023-05-04T12:50:58.071Z,99513.84
2023-05-04T12:52:31.502Z,99514.25
2023-05-04T12:54:06.352Z,99520.50
2023-05-04T12:55:39.795Z,99526.31
2023-05-04T12:57:13.814Z,99520.63
2023-05-04T12:58:47.223Z,99525.63
2023-05-04T13:00:20.850Z,99515.63
2023-05-04T13:01:54.196Z,99519.75
2023-05-04T13:03:28.284Z,99519.41
2023-05-04T13:05:01.934Z,99519.25
2023-05-04T13:06:35.289Z,99515.03
2023-05-04T13:08:08.850Z,99507.94
2023-05-04T13:09:43.832Z,99517.09
2023-05-04T13:11:19.778Z,99517.09
2023-05-04T13:12:53.180Z,99516.19
2023-05-04T13:14:26.452Z,99516.56
2023-05-04T13:15:59.788Z,99513.09
2023-05-04T13:17:35.848Z,99516.72
2023-05-04T13:19:09.237Z,99516.56
2023-05-04T13:20:42.489Z,99509.81
2023-05-04T13:22:16.010Z,99517.19
2023-05-04T13:23:49.406Z,99525.53
2023-05-04T13:25:24.101Z,99523.34
2023-05-04T13:26:58.415Z,99517.31
2023-05-04T13:28:31.750Z,99526.19
2023-05-04T13:30:05.385Z,99525.34
2023-05-04T13:31:45.008Z,99519.69
2023-05-04T13:33:28.686Z,99518.19
2023-05-04T13:35:02.653Z,99518.72
2023-05-04T13:36:36.135Z,99530.78
2023-05-04T13:38:10.477Z,99526.84
2023-05-04T13:39:44.374Z,99515.84
2023-05-04T13:41:19.561Z,99519.44
2023-05-04T13:42:52.984Z,99519.16
2023-05-04T13:44:26.059Z,99519.59
2023-05-04T13:46:04.096Z,99519.97
2023-05-04T13:47:37.957Z,99520.78
2023-05-04T13:49:11.388Z,99522.56
2023-05-04T13:50:44.492Z,99521.53
2023-05-04T13:52:17.703Z,99519.59
2023-05-04T13:53:51.015Z,99523.81
2023-05-04T13:55:24.849Z,99513.59
2023-05-04T13:57:00.676Z,99519.53
2023-05-04T13:58:33.919Z,99522.78
2023-05-04T14:00:09.635Z,99517.97
2023-05-04T14:01:45.682Z,99521.09
2023-05-04T14:03:19.037Z,99526.88
2023-05-04T14:04:52.180Z,99529.00
2023-05-04T14:06:26.417Z,99530.03
2023-05-04T14:07:59.734Z,99528.31
2023-05-04T14:09:32.878Z,99534.09
2023-05-04T14:11:06.239Z,99527.66
2023-05-04T14:12:40.961Z,99530.31
2023-05-04T14:14:14.447Z,99534.72
2023-05-04T14:15:48.898Z,99535.22
2023-05-04T14:17:22.709Z,99530.78
2023-05-04T14:18:56.038Z,99536.75
2023-05-04T14:20:29.340Z,99541.00
2023-05-04T14:22:02.929Z,99540.19
2023-05-04T14:23:36.112Z,99542.09
2023-05-04T14:25:10.276Z,99539.75
2023-05-04T14:26:43.807Z,99540.69
2023-05-04T14:28:18.402Z,99542.41
2023-05-04T14:29:51.557Z,99541.16
2023-05-04T14:31:25.100Z,99548.56
2023-05-04T14:32:58.533Z,99552.63
2023-05-04T14:34:32.620Z,99554.78
2023-05-04T14:36:06.363Z,99560.28
2023-05-04T14:37:41.553Z,99549.28
2023-05-04T14:39:14.806Z,99555.56
2023-05-04T14:40:49.540Z,99560.91
2023-05-04T14:42:23.157Z,99559.88
2023-05-04T14:43:57.710Z,99558.88
2023-05-04T14:45:31.198Z,99553.84
2023-05-04T14:47:07.410Z,99561.06
2023-05-04T14:48:40.979Z,99559.66
2023-05-04T14:50:14.608Z,99558.72
2023-05-04T14:51:49.003Z,99564.03
2023-05-04T14:53:23.137Z,99562.47
2023-05-04T14:54:56.383Z,99564.69
2023-05-04T14:56:29.707Z,99566.91
2023-05-04T14:58:03.330Z,99574.13
2023-05-04T14:59:38.799Z,99570.50
2023-05-04T15:01:12.061Z,99574.41
2023-05-04T15:02:45.421Z,99569.22
2023-05-04T15:04:19.156Z,99569.22
2023-05-04T15:05:52.420Z,99572.69
2023-05-04T15:07:25.627Z,99569.22
2023-05-04T15:08:58.875Z,99571.25
2023-05-04T15:10:32.109Z,99572.97
2023-05-04T15:12:05.818Z,99571.88
2023-05-04T15:13:38.997Z,99569.53
2023-05-04T15:15:14.053Z,99571.41
2023-05-04T15:16:47.661Z,99573.28
2023-05-04T15:18:23.974Z,99575.03
2023-05-04T15:19:57.192Z,99575.03
2023-05-04T15:21:30.444Z,99566.72
2023-05-04T15:23:10.241Z,99578.53
2023-05-04T15:24:43.457Z,99575.47
2023-05-04T15:26:16.674Z,99569.03
2023-05-04T15:27:49.900Z,99570.75
2023-05-04T15:29:23.287Z,99567.75
2023-05-04T15:30:57.825Z,99571.66
2023-05-04T15:32:31.036Z,99578.63
2023-05-04T15:34:04.314Z,99582.09
2023-05-04T15:35:38.275Z,99578.41
2023-05-04T15:37:11.376Z,99579.28
2023-05-04T15:38:44.729Z,99579.97
2023-05-04T15:40:17.987Z,99579.34
2023-05-04T15:41:51.484Z,99578.69
2023-05-04T15:43:24.642Z,99575.56
2023-05-04T15:44:57.788Z,99571.94
2023-05-04T15:46:35.285Z,99564.34
2023-05-04T15:48:08.870Z,99576.00
2023-05-04T15:49:42.047Z,99577.59
2023-05-04T15:51:15.492Z,99579.16
2023-05-04T15:52:48.940Z,99577.44
2023-05-04T15:54:22.227Z,99572.13
2023-05-04T15:55:55.412Z,99576.63
2023-05-04T15:57:28.574Z,99580.31
2023-05-04T15:59:01.876Z,99583.94
2023-05-04T16:00:35.396Z,99572.53
2023-05-04T16:02:10.078Z,99570.97
2023-05-04T16:03:44.364Z,99582.63
2023-05-04T16:05:17.570Z,99579.91
2023-05-04T16:06:50.968Z,99580.53
2023-05-04T16:08:24.143Z,99581.19
2023-05-04T16:09:57.984Z,99577.88
2023-05-04T16:11:31.658Z,99574.13
2023-05-04T16:13:05.476Z,99581.81
2023-05-04T16:14:38.947Z,99580.88
2023-05-04T16:16:12.105Z,99585.38
2023-05-04T16:17:46.795Z,99572.19
2023-05-04T16:19:20.185Z,99582.59
2023-05-04T16:20:54.772Z,99577.28
2023-05-04T16:22:27.971Z,99583.31
2023-05-04T16:24:01.172Z,99580.59
2023-05-04T16:25:34.914Z,99584.75
2023-05-04T16:27:08.295Z,99587.34
2023-05-04T16:28:41.616Z,99586.63
2023-05-04T16:30:16.090Z,99575.97
2023-05-04T16:31:49.458Z,99582.03
2023-05-04T16:33:24.957Z,99584.44
2023-05-04T16:34:58.063Z,99579.84
2023-05-04T16:36:31.824Z,99573.72
2023-05-04T16:38:05.186Z,99585.72
2023-05-04T16:39:38.624Z,99580.94
2023-05-04T16:41:11.850Z,99586.44
2023-05-04T16:42:44.979Z,99581.13
2023-05-04T16:44:18.366Z,99581.13
2023-05-04T16:45:51.563Z,99582.53
2023-05-04T16:47:24.678Z,99585.28
2023-05-04T16:48:59.417Z,99585.09
2023-05-04T16:50:32.968Z,99575.78
2023-05-04T16:52:06.355Z,99592.69
2023-05-04T16:53:39.521Z,99577.03
2023-05-04T16:55:12.901Z,99585.56
2023-05-04T16:56:46.319Z,99593.94
2023-05-04T16:58:19.616Z,99595.81
2023-05-04T16:59:52.813Z,99596.25
2023-05-04T17:01:26.153Z,99603.75
2023-05-04T17:02:59.619Z,99603.88
2023-05-04T17:04:34.150Z,99612.69
2023-05-04T17:06:07.564Z,99608.94
2023-05-04T17:07:43.573Z,99608.78
2023-05-04T17:09:16.739Z,99612.22
2023-05-04T17:10:49.881Z,99617.00
2023-05-04T17:12:23.428Z,99612.53
2023-05-04T17:13:56.916Z,99612.53
2023-05-04T17:15:30.377Z,99613.38
2023-05-04T17:17:03.816Z,99614.53
2023-05-04T17:18:37.025Z,99617.31
2023-05-04T17:20:15.292Z,99621.47
2023-05-04T17:21:49.074Z,99623.47
2023-05-04T17:23:22.813Z,99621.75
2023-05-04T17:24:55.912Z,99618.16
2023-05-04T17:26:29.242Z,99628.50
2023-05-04T17:28:03.294Z,99622.25
2023-05-04T17:29:36.470Z,99629.28
2023-05-04T17:31:12.077Z,99614.53
2023-05-04T17:32:45.448Z,99617.31
2023-05-04T17:34:19.015Z,99613.78
2023-05-04T17:35:54.092Z,99620.88
2023-05-04T17:37:27.919Z,99623.47
2023-05-04T17:39:01.265Z,99612.97
2023-05-04T17:40:34.532Z,99616.56
2023-05-04T17:42:08.342Z,99609.88
2023-05-04T17:43:41.633Z,99614.50
2023-05-04T17:45:15.346Z,99620.91
2023-05-04T17:46:48.513Z,99617.38
2023-05-04T17:48:21.717Z,99617.44
2023-05-04T17:49:55.182Z,99619.31
2023-05-04T17:51:30.003Z,99627.16
2023-05-04T17:53:06.172Z,99626.38
2023-05-04T17:54:39.449Z,99631.81
2023-05-04T17:56:12.571Z,99629.16
2023-05-04T17:57:45.949Z,99637.06
2023-05-04T17:59:19.156Z,99631.69
2023-05-04T18:00:53.255Z,99624.50
2023-05-04T18:02:26.651Z,99626.38
2023-05-04T18:04:00.198Z,99629.31
2023-05-04T18:05:33.812Z,99627.59
2023-05-04T18:07:08.561Z,99631.25
2023-05-04T18:08:41.804Z,99642.16
2023-05-04T18:10:15.333Z,99641.16
2023-05-04T18:11:48.616Z,99643.41
2023-05-04T18:13:22.158Z,99635.44
2023-05-04T18:14:55.386Z,99643.34
2023-05-04T18:16:28.862Z,99646.06
2023-05-04T18:18:02.588Z,99647.66
2023-05-04T18:19:37.057Z,99646.78
2023-05-04T18:21:10.277Z,99656.28
2023-05-04T18:22:45.074Z,99640.75
2023-05-04T18:24:18.749Z,99660.31
2023-05-04T18:25:51.862Z,99662.91
2023-05-04T18:27:25.063Z,99662.03